createdAt,value
2023-04-28T00:02:08.185Z,9.43
2023-04-28T00:04:36.364Z,9.47
2023-04-28T00:07:06.090Z,9.54
2023-04-28T00:09:34.043Z,9.56
2023-04-28T00:12:02.748Z,9.62
2023-04-28T00:14:30.686Z,9.65
2023-04-28T00:16:59.367Z,9.69
2023-04-28T00:19:27.309Z,9.73
2023-04-28T00:21:55.264Z,9.76
2023-04-28T00:24:24.598Z,9.76
2023-04-28T00:26:52.578Z,9.81
2023-04-28T00:29:20.530Z,9.82
2023-04-28T00:31:48.536Z,9.85
2023-04-28T00:34:16.812Z,9.84
2023-04-28T00:36:45.082Z,9.85
2023-04-28T00:39:13.063Z,9.88
2023-04-28T00:41:42.375Z,9.87
2023-04-28T00:44:10.316Z,9.87
2023-04-28T00:46:38.249Z,9.86
2023-04-28T00:49:06.281Z,9.86
2023-04-28T00:51:34.752Z,9.90
2023-04-28T00:54:02.660Z,9.90
2023-04-28T00:56:31.268Z,9.76
2023-04-28T00:59:00.660Z,9.81
2023-04-28T01:01:28.610Z,9.81
2023-04-28T01:03:56.759Z,9.79
2023-04-28T01:06:24.823Z,9.78
2023-04-28T01:08:53.428Z,9.73
2023-04-28T01:11:21.371Z,9.73
2023-04-28T01:13:49.287Z,9.77
2023-04-28T01:16:18.663Z,9.75
2023-04-28T01:18:48.292Z,9.70
2023-04-28T01:21:16.215Z,9.58
2023-04-28T01:23:48.205Z,9.60
2023-04-28T01:26:16.145Z,9.53
2023-04-28T01:28:44.131Z,9.55
2023-04-28T01:31:12.071Z,9.61
2023-04-28T01:33:40.069Z,9.61
2023-04-28T01:36:08.643Z,9.59
2023-04-28T01:38:36.556Z,9.64
2023-04-28T01:41:06.086Z,9.70
2023-04-28T01:43:34.010Z,9.70
2023-04-28T01:46:01.959Z,9.63
2023-04-28T01:48:29.935Z,9.59
2023-04-28T01:50:57.915Z,9.59
2023-04-28T01:53:26.103Z,9.62
2023-04-28T01:55:54.658Z,9.66
2023-04-28T01:58:23.989Z,9.70
2023-04-28T02:00:51.944Z,9.70
2023-04-28T02:03:19.974Z,9.66
2023-04-28T02:05:48.020Z,9.68
2023-04-28T02:08:16.006Z,9.71
2023-04-28T02:10:44.118Z,9.69
2023-04-28T02:13:12.225Z,9.69
2023-04-28T02:15:42.604Z,9.63
2023-04-28T02:18:10.653Z,9.54
2023-04-28T02:20:38.617Z,9.52
2023-04-28T02:23:06.571Z,9.54
2023-04-28T02:25:34.510Z,9.52
2023-04-28T02:28:03.034Z,9.57
2023-04-28T02:30:31.063Z,9.59
2023-04-28T02:33:00.395Z,9.59
2023-04-28T02:35:28.392Z,9.55
2023-04-28T02:37:56.347Z,9.55
2023-04-28T02:40:24.285Z,9.54
2023-04-28T02:42:52.238Z,9.52
2023-04-28T02:45:20.321Z,9.43
2023-04-28T02:47:48.347Z,9.39
2023-04-28T02:50:17.680Z,9.36
2023-04-28T02:52:47.031Z,9.36
2023-04-28T02:55:23.812Z,9.30
2023-04-28T02:57:51.946Z,9.34
2023-04-28T03:00:20.556Z,9.17
2023-04-28T03:02:48.678Z,9.37
2023-04-28T03:05:18.215Z,9.28
2023-04-28T03:07:46.156Z,9.19
2023-04-28T03:10:14.109Z,9.20
2023-04-28T03:12:42.071Z,9.25
2023-04-28T03:15:12.107Z,9.26
2023-04-28T03:17:42.377Z,9.23
2023-04-28T03:20:11.214Z,9.18
2023-04-28T03:22:40.493Z,9.18
2023-04-28T03:25:08.952Z,9.16
2023-04-28T03:27:36.939Z,9.13
2023-04-28T03:30:05.451Z,9.15
2023-04-28T03:32:33.444Z,9.19
2023-04-28T03:35:01.426Z,9.24
2023-04-28T03:37:29.460Z,9.23
2023-04-28T03:39:58.748Z,9.26
2023-04-28T03:42:26.708Z,9.26
2023-04-28T03:44:54.656Z,9.27
2023-04-28T03:47:22.612Z,9.25
2023-04-28T03:49:50.601Z,9.24
2023-04-28T03:52:18.555Z,9.20
2023-04-28T03:54:46.550Z,9.27
2023-04-28T03:57:15.887Z,9.31
2023-04-28T03:59:43.929Z,9.35
2023-04-28T04:02:11.920Z,9.39
2023-04-28T04:04:39.984Z,9.39
2023-04-28T04:07:08.039Z,9.45
2023-04-28T04:09:36.056Z,9.55
2023-04-28T04:12:04.054Z,9.63
2023-04-28T04:14:33.458Z,9.66
2023-04-28T04:17:01.436Z,9.63
2023-04-28T04:19:29.368Z,9.65
2023-04-28T04:21:57.361Z,9.62
2023-04-28T04:24:25.424Z,9.64
2023-04-28T04:26:53.414Z,9.66
2023-04-28T04:29:21.353Z,9.68
2023-04-28T04:31:50.664Z,9.72
2023-04-28T04:34:18.739Z,9.73
2023-04-28T04:36:46.804Z,9.84
2023-04-28T04:39:14.728Z,9.85
2023-04-28T04:41:42.854Z,9.92
2023-04-28T04:44:11.804Z,9.97
2023-04-28T04:46:41.117Z,10.06
2023-04-28T04:49:10.420Z,10.21
2023-04-28T04:51:38.365Z,10.26
2023-04-28T04:54:06.612Z,10.20
2023-04-28T04:56:34.884Z,10.09
2023-04-28T04:59:02.854Z,10.19
2023-04-28T05:01:30.833Z,10.20
2023-04-28T05:03:59.145Z,10.18
2023-04-28T05:06:28.652Z,10.00
2023-04-28T05:08:59.305Z,9.89
2023-04-28T05:11:27.201Z,9.90
2023-04-28T05:13:55.167Z,10.00
2023-04-28T05:16:23.195Z,10.04
2023-04-28T05:18:51.451Z,10.07
2023-04-28T05:21:19.391Z,10.27
2023-04-28T05:23:48.710Z,10.62
2023-04-28T05:26:16.788Z,10.93
2023-04-28T05:28:44.729Z,11.07
2023-04-28T05:31:12.638Z,11.49
2023-04-28T05:33:40.592Z,12.02
2023-04-28T05:36:09.200Z,12.53
2023-04-28T05:38:37.153Z,12.87
2023-04-28T05:41:06.492Z,13.47
2023-04-28T05:43:34.460Z,14.29
2023-04-28T05:46:02.424Z,14.85
2023-04-28T05:48:30.809Z,16.15
2023-04-28T05:50:58.748Z,16.77
2023-04-28T05:53:26.868Z,17.32
2023-04-28T05:55:54.834Z,17.58
2023-04-28T05:58:24.242Z,18.85
2023-04-28T06:00:52.212Z,18.95
2023-04-28T06:03:20.332Z,18.79
2023-04-28T06:05:48.536Z,18.28
2023-04-28T06:08:16.511Z,18.16
2023-04-28T06:10:44.437Z,18.47
2023-04-28T06:13:13.938Z,18.71
2023-04-28T06:15:43.966Z,19.61
2023-04-28T06:18:12.004Z,20.24
2023-04-28T06:20:39.968Z,19.28
2023-04-28T06:23:09.086Z,18.83
2023-04-28T06:25:37.394Z,18.66
2023-04-28T06:28:06.411Z,20.54
2023-04-28T06:30:34.359Z,21.24
2023-04-28T06:33:03.752Z,23.16
2023-04-28T06:35:31.712Z,25.33
2023-04-28T06:37:59.696Z,26.73
2023-04-28T06:40:27.678Z,28.63
2023-04-28T06:42:55.626Z,27.60
2023-04-28T06:45:23.604Z,27.83
2023-04-28T06:47:52.509Z,28.06
2023-04-28T06:50:22.135Z,28.61
2023-04-28T06:52:50.109Z,28.03
2023-04-28T06:55:18.156Z,27.83
2023-04-28T06:57:46.156Z,27.14
2023-04-28T07:00:15.456Z,26.70
2023-04-28T07:02:43.580Z,25.47
2023-04-28T07:05:12.651Z,23.15
2023-04-28T07:07:43.483Z,23.20
2023-04-28T07:10:11.817Z,24.07
2023-04-28T07:12:39.730Z,24.10
2023-04-28T07:15:10.087Z,23.94
2023-04-28T07:17:38.449Z,23.24
2023-04-28T07:20:07.920Z,22.71
2023-04-28T07:22:35.869Z,22.60
2023-04-28T07:25:06.456Z,22.08
2023-04-28T07:27:34.373Z,21.85
2023-04-28T07:30:11.604Z,21.40
2023-04-28T07:32:46.976Z,21.58
2023-04-28T07:35:14.984Z,22.37
2023-04-28T07:37:43.001Z,23.04
2023-04-28T07:40:12.911Z,22.65
2023-04-28T07:42:41.149Z,21.92
2023-04-28T07:45:10.090Z,21.16
2023-04-28T07:47:38.055Z,20.14
2023-04-28T07:50:07.063Z,19.20
2023-04-28T07:52:35.032Z,18.38
2023-04-28T07:55:04.262Z,17.89
2023-04-28T07:57:33.588Z,17.82
2023-04-28T08:00:01.532Z,17.26
2023-04-28T08:02:29.602Z,17.22
2023-04-28T08:04:57.789Z,17.24
2023-04-28T08:07:26.255Z,16.83
2023-04-28T08:09:55.316Z,16.88
2023-04-28T08:12:23.284Z,16.98
2023-04-28T08:14:52.621Z,16.93
2023-04-28T08:17:20.530Z,17.12
2023-04-28T08:19:48.909Z,17.48
2023-04-28T08:22:16.889Z,17.54
2023-04-28T08:24:44.850Z,17.38
2023-04-28T08:27:12.820Z,17.13
2023-04-28T08:29:41.324Z,17.10
2023-04-28T08:32:10.690Z,17.06
2023-04-28T08:34:38.673Z,17.24
2023-04-28T08:37:07.419Z,17.53
2023-04-28T08:39:35.634Z,17.60
2023-04-28T08:42:05.664Z,17.76
2023-04-28T08:44:38.254Z,17.78
2023-04-28T08:47:06.254Z,18.00
2023-04-28T08:49:36.329Z,18.04
2023-04-28T08:52:04.405Z,18.37
2023-04-28T08:54:33.020Z,18.61
2023-04-28T08:57:01.345Z,18.81
2023-04-28T08:59:29.415Z,18.76
2023-04-28T09:01:59.540Z,18.37
2023-04-28T09:04:27.949Z,18.15
2023-04-28T09:06:57.457Z,18.29
2023-04-28T09:09:26.348Z,18.24
2023-04-28T09:11:55.651Z,17.59
2023-04-28T09:14:23.963Z,17.46
2023-04-28T09:16:52.052Z,17.94
2023-04-28T09:19:20.197Z,18.07
2023-04-28T09:21:52.167Z,18.64
2023-04-28T09:24:34.516Z,18.57
2023-04-28T09:27:03.488Z,18.24
2023-04-28T09:29:31.548Z,17.74
2023-04-28T09:32:14.164Z,17.44
2023-04-28T09:34:46.533Z,17.54
2023-04-28T09:37:17.980Z,17.77
2023-04-28T09:39:47.835Z,18.26
2023-04-28T09:42:34.649Z,18.78
2023-04-28T09:45:03.427Z,19.14
2023-04-28T09:47:32.552Z,19.46
2023-04-28T09:50:01.227Z,19.54
2023-04-28T09:52:29.160Z,19.02
2023-04-28T09:54:58.533Z,19.07
2023-04-28T09:57:26.559Z,18.81
2023-04-28T09:59:55.082Z,18.60
2023-04-28T10:02:42.856Z,18.62
2023-04-28T10:05:11.736Z,18.74
2023-04-28T10:07:40.220Z,19.01
2023-04-28T10:10:10.302Z,19.06
2023-04-28T10:12:39.176Z,18.35
2023-04-28T10:15:08.593Z,19.04
2023-04-28T10:17:36.793Z,19.89
2023-04-28T10:20:05.549Z,20.42
2023-04-28T10:22:40.629Z,20.45
2023-04-28T10:25:26.922Z,21.02
2023-04-28T10:27:54.840Z,21.21
2023-04-28T10:30:27.968Z,21.14
2023-04-28T10:33:24.636Z,21.36
2023-04-28T10:35:52.759Z,21.30
2023-04-28T10:38:21.832Z,21.67
2023-04-28T10:40:51.348Z,22.06
2023-04-28T10:43:34.870Z,22.14
2023-04-28T10:46:05.036Z,22.37
2023-04-28T10:48:54.241Z,23.07
2023-04-28T10:51:27.393Z,23.24
2023-04-28T10:54:17.881Z,22.54
2023-04-28T10:57:21.432Z,21.87
2023-04-28T10:59:50.477Z,21.05
2023-04-28T11:02:38.150Z,20.89
2023-04-28T11:05:19.008Z,21.22
2023-04-28T11:08:23.896Z,22.45
2023-04-28T11:11:13.891Z,22.21
2023-04-28T11:13:43.327Z,21.27
2023-04-28T11:16:11.365Z,21.35
2023-04-28T11:18:59.473Z,22.97
2023-04-28T11:21:28.332Z,23.82
2023-04-28T11:23:56.459Z,24.26
2023-04-28T11:26:24.772Z,24.53
2023-04-28T11:28:54.673Z,24.41
2023-04-28T11:31:24.197Z,24.92
2023-04-28T11:33:57.798Z,25.71
2023-04-28T11:36:26.905Z,26.11
2023-04-28T11:38:56.156Z,25.94
2023-04-28T11:41:24.357Z,26.11
2023-04-28T11:43:52.512Z,24.33
2023-04-28T11:46:23.096Z,24.91
2023-04-28T11:48:56.476Z,25.38
2023-04-28T11:51:38.163Z,24.54
2023-04-28T11:54:07.326Z,22.99
2023-04-28T11:56:38.797Z,22.06
2023-04-28T11:59:08.852Z,22.93
2023-04-28T12:01:46.739Z,24.47
2023-04-28T12:04:14.809Z,25.50
2023-04-28T12:06:42.859Z,26.42
2023-04-28T12:09:17.990Z,27.32
2023-04-28T12:11:57.500Z,26.48
2023-04-28T12:14:25.692Z,24.87
2023-04-28T12:16:55.021Z,25.17
2023-04-28T12:19:22.932Z,26.61
2023-04-28T12:22:01.001Z,27.14
2023-04-28T12:24:28.975Z,25.84
2023-04-28T12:26:56.951Z,24.97
2023-04-28T12:29:38.584Z,25.16
2023-04-28T12:32:08.663Z,24.39
2023-04-28T12:34:36.943Z,24.65
2023-04-28T12:37:05.788Z,24.06
2023-04-28T12:39:34.653Z,24.62
2023-04-28T12:42:04.105Z,23.83
2023-04-28T12:44:36.668Z,22.71
2023-04-28T12:47:05.546Z,22.12
2023-04-28T12:49:35.184Z,22.06
2023-04-28T12:52:03.300Z,21.61
2023-04-28T12:54:31.375Z,21.11
2023-04-28T12:56:59.441Z,21.02
2023-04-28T12:59:27.417Z,21.19
2023-04-28T13:01:55.590Z,20.89
2023-04-28T13:04:23.776Z,21.42
2023-04-28T13:06:54.421Z,21.65
2023-04-28T13:09:22.374Z,21.87
2023-04-28T13:11:50.299Z,21.26
2023-04-28T13:14:18.228Z,20.60
2023-04-28T13:16:47.059Z,19.94
2023-04-28T13:19:15.020Z,19.26
2023-04-28T13:21:43.052Z,19.14
2023-04-28T13:24:13.520Z,19.56
2023-04-28T13:26:41.515Z,20.02
2023-04-28T13:29:09.499Z,19.95
2023-04-28T13:31:37.455Z,19.81
2023-04-28T13:34:06.264Z,19.40
2023-04-28T13:36:34.291Z,18.87
2023-04-28T13:39:02.567Z,18.97
2023-04-28T13:41:32.112Z,19.01
2023-04-28T13:44:00.020Z,19.14
2023-04-28T13:46:28.176Z,19.63
2023-04-28T13:48:56.177Z,19.72
2023-04-28T13:51:24.212Z,19.66
2023-04-28T13:53:52.257Z,19.58
2023-04-28T13:56:20.205Z,19.48
2023-04-28T13:58:49.492Z,19.15
2023-04-28T14:01:17.531Z,19.02
2023-04-28T14:03:45.783Z,18.97
2023-04-28T14:06:14.255Z,18.85
2023-04-28T14:08:42.175Z,18.65
2023-04-28T14:11:10.487Z,18.70
2023-04-28T14:13:38.463Z,18.74
2023-04-28T14:16:08.856Z,18.84
2023-04-28T14:18:36.949Z,18.70
2023-04-28T14:21:08.122Z,19.00
2023-04-28T14:23:36.748Z,18.86
2023-04-28T14:26:04.939Z,18.61
2023-04-28T14:28:32.905Z,18.43
2023-04-28T14:31:06.205Z,18.12
2023-04-28T14:33:35.545Z,18.00
2023-04-28T14:36:03.477Z,18.02
2023-04-28T14:38:31.500Z,18.17
2023-04-28T14:40:59.482Z,18.25
2023-04-28T14:43:27.580Z,18.33
2023-04-28T14:45:55.563Z,18.36
2023-04-28T14:48:23.728Z,18.24
2023-04-28T14:50:53.092Z,18.08
2023-04-28T14:53:21.232Z,17.67
2023-04-28T14:55:49.469Z,17.33
2023-04-28T14:58:17.429Z,17.07
2023-04-28T15:00:45.393Z,16.67
2023-04-28T15:03:13.542Z,16.34
2023-04-28T15:05:41.712Z,16.33
2023-04-28T15:08:11.742Z,16.25
2023-04-28T15:10:40.447Z,16.11
2023-04-28T15:13:08.496Z,16.08
2023-04-28T15:15:36.477Z,16.21
2023-04-28T15:18:04.607Z,16.18
2023-04-28T15:20:33.319Z,16.35
2023-04-28T15:23:01.541Z,16.34
2023-04-28T15:25:30.885Z,16.17
2023-04-28T15:27:59.122Z,16.02
2023-04-28T15:30:28.041Z,15.96
2023-04-28T15:32:55.969Z,16.02
2023-04-28T15:35:23.904Z,16.02
2023-04-28T15:37:52.084Z,15.91
2023-04-28T15:40:21.370Z,15.87
2023-04-28T15:42:52.680Z,15.80
2023-04-28T15:45:21.313Z,15.62
2023-04-28T15:47:50.358Z,15.50
2023-04-28T15:50:19.740Z,15.39
2023-04-28T15:52:48.514Z,15.02
2023-04-28T15:55:17.028Z,15.05
2023-04-28T15:57:45.063Z,14.94
2023-04-28T16:00:15.754Z,14.93
2023-04-28T16:02:43.973Z,14.92
2023-04-28T16:05:12.261Z,14.87
2023-04-28T16:07:41.098Z,14.76
2023-04-28T16:10:10.921Z,14.69
2023-04-28T16:12:39.313Z,14.56
2023-04-28T16:15:09.489Z,14.40
2023-04-28T16:17:39.311Z,14.23
2023-04-28T16:20:08.920Z,14.18
2023-04-28T16:22:36.871Z,14.04
2023-04-28T16:25:05.153Z,13.96
2023-04-28T16:27:33.344Z,13.88
2023-04-28T16:30:01.330Z,13.90
2023-04-28T16:32:29.335Z,13.95
2023-04-28T16:34:59.084Z,13.97
2023-04-28T16:37:27.257Z,13.99
2023-04-28T16:39:55.184Z,13.91
2023-04-28T16:42:23.346Z,13.86
2023-04-28T16:44:53.013Z,13.76
2023-04-28T16:47:21.363Z,13.74
2023-04-28T16:49:49.436Z,13.69
2023-04-28T16:52:18.940Z,13.66
2023-04-28T16:54:46.919Z,13.62
2023-04-28T16:57:14.875Z,13.60
2023-04-28T16:59:43.000Z,13.55
2023-04-28T17:02:11.133Z,13.46
2023-04-28T17:04:39.283Z,13.33
2023-04-28T17:07:07.460Z,13.20
2023-04-28T17:09:36.929Z,13.07
2023-04-28T17:12:05.040Z,12.91
2023-04-28T17:14:32.956Z,12.82
2023-04-28T17:17:01.117Z,12.69
2023-04-28T17:19:29.093Z,12.53
2023-04-28T17:21:57.072Z,12.37
2023-04-28T17:24:25.015Z,12.25
2023-04-28T17:26:54.882Z,12.10
2023-04-28T17:29:23.276Z,11.95
2023-04-28T17:31:51.271Z,11.81
2023-04-28T17:34:20.036Z,11.66
2023-04-28T17:36:48.032Z,11.51
2023-04-28T17:39:16.736Z,11.36
2023-04-28T17:41:45.180Z,11.21
2023-04-28T17:44:14.697Z,11.09
2023-04-28T17:46:42.737Z,10.95
2023-04-28T17:49:11.062Z,10.83
2023-04-28T17:51:39.018Z,10.70
2023-04-28T17:54:09.604Z,10.59
2023-04-28T17:56:38.675Z,10.43
2023-04-28T17:59:08.320Z,10.31
2023-04-28T18:01:37.772Z,10.20
2023-04-28T18:04:05.952Z,10.10
2023-04-28T18:06:33.893Z,10.00
2023-04-28T18:09:01.874Z,9.90
2023-04-28T18:11:29.873Z,9.82
2023-04-28T18:13:58.901Z,9.74
2023-04-28T18:16:27.064Z,9.64
2023-04-28T18:18:56.424Z,9.56
2023-04-28T18:21:24.384Z,9.49
2023-04-28T18:23:52.303Z,9.41
2023-04-28T18:26:22.205Z,9.33
2023-04-28T18:28:50.142Z,9.23
2023-04-28T18:31:18.121Z,9.15
2023-04-28T18:33:46.078Z,9.09
2023-04-28T18:36:15.348Z,9.02
2023-04-28T18:38:43.322Z,8.95
2023-04-28T18:41:14.807Z,8.90
2023-04-28T18:43:43.506Z,8.81
2023-04-28T18:46:11.550Z,8.77
2023-04-28T18:48:40.110Z,8.73
2023-04-28T18:51:08.127Z,8.69
2023-04-28T18:53:38.191Z,8.64
2023-04-28T18:56:06.226Z,8.61
2023-04-28T18:58:37.046Z,8.57
2023-04-28T19:01:05.098Z,8.51
2023-04-28T19:03:33.330Z,8.45
2023-04-28T19:06:01.558Z,8.43
2023-04-28T19:08:29.498Z,8.39
2023-04-28T19:11:00.149Z,8.35
2023-04-28T19:13:28.187Z,8.32
2023-04-28T19:15:56.379Z,8.28
2023-04-28T19:18:24.378Z,8.25
2023-04-28T19:20:59.246Z,8.20
2023-04-28T19:23:27.169Z,8.14
2023-04-28T19:25:56.318Z,8.15
2023-04-28T19:28:26.293Z,8.10
2023-04-28T19:30:54.352Z,8.05
2023-04-28T19:33:24.882Z,8.03
2023-04-28T19:35:55.241Z,8.00
2023-04-28T19:38:23.382Z,7.94
2023-04-28T19:40:52.184Z,7.93
2023-04-28T19:43:20.093Z,7.88
2023-04-28T19:45:49.395Z,7.81
2023-04-28T19:48:18.848Z,7.77
2023-04-28T19:50:46.752Z,7.74
2023-04-28T19:53:15.003Z,7.73
2023-04-28T19:55:42.992Z,7.72
2023-04-28T19:58:11.243Z,7.66
2023-04-28T20:00:39.147Z,7.68
2023-04-28T20:03:08.604Z,7.67
2023-04-28T20:05:38.777Z,7.68
2023-04-28T20:08:06.791Z,7.67
2023-04-28T20:10:34.725Z,7.65
2023-04-28T20:13:02.901Z,7.64
2023-04-28T20:15:30.861Z,7.62
2023-04-28T20:17:58.885Z,7.59
2023-04-28T20:20:28.666Z,7.57
2023-04-28T20:22:56.638Z,7.54
2023-04-28T20:25:24.592Z,7.51
2023-04-28T20:27:52.553Z,7.48
2023-04-28T20:30:20.726Z,7.46
2023-04-28T20:32:49.421Z,7.43
2023-04-28T20:35:17.573Z,7.43
2023-04-28T20:37:46.896Z,7.42
2023-04-28T20:40:15.307Z,7.40
2023-04-28T20:42:43.268Z,7.41
2023-04-28T20:45:11.974Z,7.44
2023-04-28T20:47:39.983Z,7.45
2023-04-28T20:50:10.951Z,7.46
2023-04-28T20:52:39.128Z,7.50
2023-04-28T20:55:09.658Z,7.48
2023-04-28T20:57:37.582Z,7.50
2023-04-28T21:00:07.057Z,7.48
2023-04-28T21:02:35.178Z,7.45
2023-04-28T21:05:03.288Z,7.44
2023-04-28T21:07:31.205Z,7.43
2023-04-28T21:09:59.185Z,7.44
2023-04-28T21:12:28.512Z,7.48
2023-04-28T21:14:56.816Z,7.56
2023-04-28T21:17:24.843Z,7.56
2023-04-28T21:19:53.064Z,7.58
2023-04-28T21:22:21.312Z,7.64
2023-04-28T21:24:49.294Z,7.64
2023-04-28T21:27:17.255Z,7.59
2023-04-28T21:29:46.628Z,7.64
2023-04-28T21:32:14.866Z,7.64
2023-04-28T21:34:42.924Z,7.65
2023-04-28T21:37:10.860Z,7.68
2023-04-28T21:39:38.819Z,7.65
2023-04-28T21:42:08.278Z,7.66
2023-04-28T21:44:36.264Z,7.60
2023-04-28T21:47:06.723Z,7.57
2023-04-28T21:49:34.855Z,7.53
2023-04-28T21:52:03.290Z,7.46
2023-04-28T21:54:31.256Z,7.42
2023-04-28T21:56:59.234Z,7.45
2023-04-28T21:59:27.205Z,7.50
2023-04-28T22:01:55.969Z,7.44
2023-04-28T22:04:25.563Z,7.39
2023-04-28T22:06:53.704Z,7.36
2023-04-28T22:09:22.178Z,7.30
2023-04-28T22:11:50.115Z,7.34
2023-04-28T22:14:30.561Z,7.40
2023-04-28T22:17:06.252Z,7.38
2023-04-28T22:19:35.563Z,7.32
2023-04-28T22:22:03.482Z,7.24
2023-04-28T22:24:31.663Z,7.21
2023-04-28T22:26:59.742Z,7.21
2023-04-28T22:29:27.667Z,7.25
2023-04-28T22:31:55.662Z,7.34
2023-04-28T22:34:24.173Z,7.39
2023-04-28T22:36:53.513Z,7.43
2023-04-28T22:39:21.490Z,7.45
2023-04-28T22:41:49.419Z,7.55
2023-04-28T22:44:17.349Z,7.45
2023-04-28T22:46:45.311Z,7.40
2023-04-28T22:49:13.279Z,7.32
2023-04-28T22:51:41.227Z,7.25
2023-04-28T22:54:10.858Z,7.16
2023-04-28T22:56:38.837Z,7.03
2023-04-28T22:59:09.549Z,6.99
2023-04-28T23:01:37.581Z,6.89
2023-04-28T23:04:06.009Z,6.78
2023-04-28T23:06:34.119Z,6.65
2023-04-28T23:09:03.616Z,6.53
2023-04-28T23:11:33.200Z,6.41
2023-04-28T23:14:01.146Z,6.30
2023-04-28T23:16:29.143Z,6.25
2023-04-28T23:18:57.123Z,6.15
2023-04-28T23:21:25.043Z,6.07
2023-04-28T23:23:53.029Z,6.02
2023-04-28T23:26:21.006Z,5.96
2023-04-28T23:28:50.523Z,5.92
2023-04-28T23:31:18.504Z,5.87
2023-04-28T23:33:46.451Z,5.83
2023-04-28T23:36:14.418Z,5.78
2023-04-28T23:38:42.447Z,5.65
2023-04-28T23:41:10.447Z,5.72
2023-04-28T23:43:38.418Z,5.72
2023-04-28T23:46:08.083Z,5.74
2023-04-28T23:48:36.158Z,5.64
2023-04-28T23:51:04.276Z,5.61
2023-04-28T23:53:32.238Z,5.57
2023-04-28T23:56:00.428Z,5.52
2023-04-28T23:58:28.846Z,5.50
